Time;durP1;ratioP1;P1;durP2;ratioP2;P2;SDS_P1;SDS_P2;PMS_P1;PMS_P2;Temp;Humidity;BMP_temperature;BMP_pressure;BME280_temperature;BME280_humidity;BME280_pressure;Samples;Min_cycle;Max_cycle;Signal;HPM_P1;HPM_P2
2021/12/25 00:02:17;;;;;;;72.13;38.43;;;;;;;-1.14;100.00;97953.75;1721570;82;21580;-73
2021/12/25 00:04:44;;;;;;;74.72;37.33;;;;;;;-1.09;100.00;97954.03;1719778;82;21195;-72
2021/12/25 00:07:12;;;;;;;71.70;36.83;;;;;;;-1.02;100.00;97968.10;1693182;82;21616;-72
2021/12/25 00:09:40;;;;;;;66.87;34.08;;;;;;;-0.99;100.00;97964.14;1697376;82;21119;-72
2021/12/25 00:12:08;;;;;;;71.87;36.28;;;;;;;-0.95;100.00;97967.05;1728451;82;21588;-71
2021/12/25 00:14:34;;;;;;;69.87;35.38;;;;;;;-0.92;100.00;97965.26;1733155;82;21033;-72
2021/12/25 00:17:01;;;;;;;72.37;34.25;;;;;;;-0.88;100.00;97963.42;1736411;82;21072;-72
2021/12/25 00:19:30;;;;;;;70.30;35.70;;;;;;;-0.85;100.00;97963.37;1738045;77;21105;-71
2021/12/25 00:21:56;;;;;;;73.75;36.30;;;;;;;-0.79;100.00;97961.89;1738335;81;20952;-73
2021/12/25 00:24:23;;;;;;;72.87;36.13;;;;;;;-0.74;100.00;97940.64;1736281;82;21054;-74
2021/12/25 00:26:59;;;;;;;70.60;34.83;;;;;;;-0.71;100.00;97934.58;1738181;82;21097;-71
2021/12/25 00:34:37;;;;;;;67.92;30.82;;;;;;;-0.61;100.00;97928.25;1716096;82;21104;-72
2021/12/25 00:37:04;;;;;;;73.50;37.00;;;;;;;-0.57;100.00;97929.03;1718603;82;21550;-72
2021/12/25 00:39:32;;;;;;;62.10;31.10;;;;;;;-0.53;100.00;97927.61;1724054;82;21043;-72
2021/12/25 00:42:02;;;;;;;59.03;32.88;;;;;;;-0.48;100.00;97936.53;1729808;82;21995;-73
2021/12/25 00:44:29;;;;;;;63.10;32.93;;;;;;;-0.43;100.00;97933.37;1725149;82;21043;-73
2021/12/25 00:46:57;;;;;;;57.00;30.82;;;;;;;-0.38;100.00;97921.15;1723733;83;21058;-73
2021/12/25 00:49:26;;;;;;;58.25;29.80;;;;;;;-0.34;100.00;97931.81;1724129;83;21091;-71
2021/12/25 00:51:53;;;;;;;54.15;28.23;;;;;;;-0.28;100.00;97927.74;1724210;83;21062;-73
2021/12/25 00:54:19;;;;;;;61.02;29.23;;;;;;;-0.22;100.00;97917.68;1723468;83;21135;-71
2021/12/25 00:56:48;;;;;;;60.25;28.50;;;;;;;-0.13;100.00;97920.45;1716451;82;21079;-72
2021/12/25 00:59:15;;;;;;;49.95;27.02;;;;;;;-0.06;100.00;97915.50;1711100;83;21146;-69
2021/12/25 01:01:42;;;;;;;56.15;28.07;;;;;;;0.01;100.00;97932.53;1734188;82;21556;-71
2021/12/25 01:04:08;;;;;;;60.60;30.05;;;;;;;0.05;100.00;97932.84;1737881;82;21536;-71
2021/12/25 01:06:35;;;;;;;51.13;26.77;;;;;;;0.10;100.00;97928.37;1739117;82;21120;-70
2021/12/25 01:09:04;;;;;;;55.17;30.17;;;;;;;0.13;100.00;97923.55;1738937;82;21073;-71
2021/12/25 01:11:32;;;;;;;50.65;25.25;;;;;;;0.15;100.00;97917.43;1739278;82;21540;-71
2021/12/25 01:14:08;;;;;;;58.17;26.95;;;;;;;0.16;100.00;97920.44;1740630;82;21061;-72
2021/12/25 01:17:08;;;;;;;54.33;28.70;;;;;;;0.18;100.00;97925.12;1735494;82;21042;-68
2021/12/25 01:19:45;;;;;;;49.48;27.37;;;;;;;0.22;100.00;97920.68;1709582;82;21238;-72
2021/12/25 01:24:47;;;;;;;46.95;25.72;;;;;;;0.29;100.00;97927.36;1713787;82;21066;-71
2021/12/25 01:27:43;;;;;;;48.50;25.20;;;;;;;0.32;100.00;97923.83;1706913;82;21097;-71
2021/12/25 01:30:34;;;;;;;50.83;25.68;;;;;;;0.35;100.00;97929.77;1685719;82;21141;-72
2021/12/25 01:38:05;;;;;;;47.67;24.25;;;;;;;0.59;100.00;97929.89;1662412;83;21065;-73
2021/12/25 01:40:55;;;;;;;42.50;23.73;;;;;;;0.67;100.00;97915.38;1703267;84;21101;-71
2021/12/25 01:49:04;;;;;;;41.83;22.25;;;;;;;0.88;100.00;97932.84;1713010;82;21036;-70
2021/12/25 01:51:32;;;;;;;41.55;22.30;;;;;;;0.95;100.00;97930.44;1703390;82;22014;-70
2021/12/25 01:54:00;;;;;;;40.17;21.40;;;;;;;1.00;100.00;97927.23;1712244;82;21034;-70
2021/12/25 01:56:26;;;;;;;40.10;22.80;;;;;;;1.03;100.00;97925.83;1702770;82;21074;-69
2021/12/25 01:58:53;;;;;;;40.58;22.55;;;;;;;1.07;100.00;97930.92;1666977;86;21296;-69
2021/12/25 02:01:21;;;;;;;40.08;21.68;;;;;;;1.12;100.00;97942.81;1666270;85;21090;-69
2021/12/25 02:03:48;;;;;;;40.75;20.97;;;;;;;1.15;100.00;97939.27;1715307;82;21062;-72
2021/12/25 02:06:15;;;;;;;35.35;19.57;;;;;;;1.20;100.00;97926.56;1714631;82;21027;-72
2021/12/25 02:08:44;;;;;;;30.20;17.73;;;;;;;1.24;100.00;97932.47;1726347;82;21045;-73
2021/12/25 02:11:12;;;;;;;34.08;18.57;;;;;;;1.29;100.00;97942.27;1733176;82;21122;-71
2021/12/25 02:13:40;;;;;;;33.63;19.55;;;;;;;1.34;100.00;97955.91;1732619;82;21073;-72
2021/12/25 02:16:13;;;;;;;33.63;17.30;;;;;;;1.39;100.00;97938.89;1725492;82;21510;-73
2021/12/25 02:21:34;;;;;;;31.68;17.02;;;;;;;1.51;100.00;97958.36;1724355;82;21070;-72
2021/12/25 02:23:56;;;;;;;29.07;16.02;;;;;;;1.58;100.00;97965.02;1726990;82;21097;-73
2021/12/25 02:26:24;;;;;;;29.15;15.80;;;;;;;1.62;100.00;97960.97;1734860;81;21013;-72
2021/12/25 02:28:53;;;;;;;34.15;17.50;;;;;;;1.66;100.00;97953.94;1733456;82;21153;-73
2021/12/25 02:31:20;;;;;;;29.72;17.92;;;;;;;1.72;100.00;97964.08;1701055;82;21045;-71
2021/12/25 02:33:46;;;;;;;30.20;17.42;;;;;;;1.77;100.00;97960.89;1725925;82;22099;-72
2021/12/25 02:36:14;;;;;;;30.23;16.40;;;;;;;1.81;100.00;97950.77;1718408;82;21157;-73
2021/12/25 02:38:41;;;;;;;28.38;16.60;;;;;;;1.85;100.00;97951.06;1746958;82;21322;-71
2021/12/25 02:41:08;;;;;;;30.17;16.07;;;;;;;1.91;100.00;97950.43;1746470;82;21085;-71
2021/12/25 02:43:35;;;;;;;29.00;16.23;;;;;;;1.94;100.00;97951.64;1740381;82;21472;-73
2021/12/25 02:46:05;;;;;;;28.80;15.08;;;;;;;1.96;100.00;97953.73;1717451;82;21481;-72
2021/12/25 02:48:37;;;;;;;26.42;14.87;;;;;;;1.98;100.00;97964.88;1722659;82;21157;-71
2021/12/25 02:51:04;;;;;;;28.90;14.50;;;;;;;2.00;100.00;97973.45;1652313;85;21061;-70
2021/12/25 02:53:31;;;;;;;26.20;15.45;;;;;;;2.00;100.00;97976.05;1680082;84;21139;-71
2021/12/25 02:55:58;;;;;;;30.50;15.30;;;;;;;2.03;100.00;97982.45;1732521;82;21565;-70
2021/12/25 02:58:26;;;;;;;25.02;14.40;;;;;;;2.05;100.00;97984.55;1712025;82;21042;-70
2021/12/25 03:00:57;;;;;;;27.05;14.43;;;;;;;2.05;100.00;97993.62;1732559;82;21150;-71
2021/12/25 03:03:24;;;;;;;25.15;14.47;;;;;;;2.06;100.00;98009.59;1707586;82;21050;-70
2021/12/25 03:05:52;;;;;;;27.90;13.53;;;;;;;2.07;100.00;98008.67;1732218;82;21093;-72
2021/12/25 03:08:19;;;;;;;21.93;11.78;;;;;;;2.08;100.00;97989.61;1732778;82;21057;-71
2021/12/25 03:10:48;;;;;;;26.70;13.22;;;;;;;2.08;100.00;97989.61;1731276;82;21707;-71
2021/12/25 03:13:30;;;;;;;23.30;13.75;;;;;;;2.11;100.00;97986.89;1732810;82;21135;-69
2021/12/25 03:15:46;;;;;;;23.38;14.05;;;;;;;2.12;100.00;97989.90;1724510;82;21503;-71
2021/12/25 03:18:19;;;;;;;20.50;12.80;;;;;;;2.13;100.00;97995.47;1717231;82;21705;-72
2021/12/25 03:20:50;;;;;;;23.12;13.18;;;;;;;2.11;100.00;97998.58;1724451;82;21104;-72
2021/12/25 03:23:19;;;;;;;21.15;12.55;;;;;;;2.11;100.00;97998.58;1737481;82;21126;-72
2021/12/25 03:25:49;;;;;;;21.93;12.60;;;;;;;2.10;100.00;98018.97;1734861;82;21087;-72
2021/12/25 03:28:17;;;;;;;20.45;12.65;;;;;;;2.09;100.00;98027.64;1725195;82;21796;-72
2021/12/25 03:30:45;;;;;;;21.37;12.80;;;;;;;2.07;100.00;98039.41;1650535;85;21609;-71
2021/12/25 03:33:15;;;;;;;20.45;12.53;;;;;;;2.08;100.00;98042.84;1668017;85;21130;-70
2021/12/25 03:35:42;;;;;;;19.73;11.88;;;;;;;2.11;100.00;98049.20;1655680;85;22263;-70
2021/12/25 03:38:12;;;;;;;21.62;11.63;;;;;;;2.11;100.00;98049.20;1726028;82;21117;-69
2021/12/25 03:40:40;;;;;;;19.12;11.63;;;;;;;2.11;100.00;98057.00;1668348;85;21089;-70
2021/12/25 03:43:07;;;;;;;22.80;12.80;;;;;;;2.10;100.00;98056.16;1727490;82;21128;-71
2021/12/25 03:45:35;;;;;;;22.07;13.00;;;;;;;2.10;100.00;98057.45;1705796;82;21074;-72
2021/12/25 03:58:51;;;;;;;20.30;11.57;;;;;;;2.14;100.00;98098.88;1729650;82;21608;-68
2021/12/25 04:01:30;;;;;;;17.17;10.30;;;;;;;2.13;100.00;98120.11;1703793;84;21041;-72
2021/12/25 04:06:46;;;;;;;15.48;9.43;;;;;;;2.15;100.00;98126.11;1702652;82;21576;-70
2021/12/25 04:09:13;;;;;;;14.43;8.15;;;;;;;2.13;100.00;98130.50;1702310;83;21085;-70
2021/12/25 04:11:35;;;;;;;16.52;9.23;;;;;;;2.10;100.00;98130.62;1702600;83;21045;-73
2021/12/25 04:14:03;;;;;;;14.70;8.50;;;;;;;2.09;100.00;98147.08;1703674;84;21140;-72
2021/12/25 04:16:31;;;;;;;17.10;9.60;;;;;;;2.09;100.00;98156.17;1703757;84;21378;-71
2021/12/25 04:19:01;;;;;;;14.43;8.85;;;;;;;2.08;100.00;98155.33;1703598;84;21058;-73
2021/12/25 04:21:28;;;;;;;12.45;6.37;;;;;;;2.08;100.00;98175.27;1711221;82;21114;-72
2021/12/25 04:23:56;;;;;;;8.90;5.70;;;;;;;2.04;100.00;98198.33;1733271;82;21069;-72
2021/12/25 04:26:25;;;;;;;8.78;5.25;;;;;;;1.91;100.00;98202.22;1732891;82;21085;-72
2021/12/25 04:29:15;;;;;;;7.15;4.90;;;;;;;1.75;100.00;98216.14;1741026;81;22046;-73
2021/12/25 04:31:57;;;;;;;7.70;4.87;;;;;;;1.61;100.00;98219.17;1737820;82;21041;-71
2021/12/25 05:03:51;;;;;;;6.47;4.25;;;;;;;0.95;100.00;98295.88;1681604;83;21069;-75
2021/12/25 05:06:13;;;;;;;7.35;4.25;;;;;;;0.92;100.00;98299.87;1667055;85;20995;-77
2021/12/25 05:08:43;;;;;;;8.68;4.17;;;;;;;0.92;100.00;98313.25;1716718;82;21953;-75
2021/12/25 05:11:10;;;;;;;8.13;4.25;;;;;;;0.89;100.00;98311.59;1714944;82;21057;-76
2021/12/25 05:13:37;;;;;;;5.10;3.55;;;;;;;0.89;100.00;98319.81;1740713;82;21390;-82
2021/12/25 05:16:05;;;;;;;7.90;4.33;;;;;;;0.89;100.00;98324.55;1737655;82;21284;-74
2021/12/25 05:18:32;;;;;;;4.72;3.40;;;;;;;0.89;100.00;98331.03;1740567;82;21061;-80
2021/12/25 05:20:58;;;;;;;6.25;3.67;;;;;;;0.87;100.00;98334.10;1732047;82;21603;-74
2021/12/25 05:23:25;;;;;;;6.58;4.10;;;;;;;0.86;100.00;98340.19;1721541;82;21041;-73
2021/12/25 05:25:51;;;;;;;6.92;4.05;;;;;;;0.84;100.00;98342.81;1724847;82;21849;-73
2021/12/25 05:28:26;;;;;;;6.75;4.05;;;;;;;0.83;100.00;98348.06;1727483;82;21051;-74
2021/12/25 05:30:54;;;;;;;9.23;4.50;;;;;;;0.82;100.00;98343.75;1722122;82;21599;-73
2021/12/25 05:33:41;;;;;;;4.87;3.87;;;;;;;0.80;100.00;98355.89;1727259;82;21521;-74
2021/12/25 05:36:18;;;;;;;6.42;4.08;;;;;;;0.79;100.00;98364.57;1691388;82;21042;-73
2021/12/25 05:38:50;;;;;;;;;;;;;;;0.77;100.00;98367.64;1729684;82;21048;-72
2021/12/25 05:41:25;;;;;;;6.37;4.20;;;;;;;0.77;100.00;98372.38;1724138;82;20317;-74
2021/12/25 05:43:52;;;;;;;8.38;4.85;;;;;;;0.76;100.00;98373.28;1747242;82;21586;-76
2021/12/25 05:46:20;;;;;;;7.58;4.50;;;;;;;0.76;100.00;98382.34;1725995;82;21119;-75
2021/12/25 05:48:48;;;;;;;7.22;4.83;;;;;;;0.76;100.00;98386.23;1735739;82;21105;-77
2021/12/25 05:51:33;;;;;;;8.53;4.42;;;;;;;0.78;100.00;98390.06;1738886;82;21057;-77
2021/12/25 05:54:08;;;;;;;7.62;4.53;;;;;;;0.78;100.00;98393.95;1676510;82;21572;-76
2021/12/25 05:56:45;;;;;;;6.90;4.42;;;;;;;0.78;100.00;98392.23;1736493;82;21033;-76
2021/12/25 05:59:13;;;;;;;7.42;4.97;;;;;;;0.78;100.00;98410.79;1713271;82;21150;-76
2021/12/25 06:01:41;;;;;;;6.97;4.40;;;;;;;0.75;100.00;98416.91;1682084;82;21049;-79
2021/12/25 06:04:08;;;;;;;8.03;4.87;;;;;;;0.73;100.00;98419.97;1731977;82;21046;-76
2021/12/25 06:06:35;;;;;;;6.62;4.47;;;;;;;0.70;100.00;98433.47;1731170;82;21025;-75
2021/12/25 06:09:04;;;;;;;9.60;5.20;;;;;;;0.69;100.00;98430.03;1735357;82;21018;-74
2021/12/25 06:11:32;;;;;;;8.20;4.47;;;;;;;0.69;100.00;98448.58;1731201;82;21105;-74
2021/12/25 06:14:09;;;;;;;8.50;4.70;;;;;;;0.67;100.00;98457.71;1728528;82;21033;-73
2021/12/25 06:16:30;;;;;;;6.20;4.53;;;;;;;0.65;100.00;98470.30;1724383;82;21061;-78
2021/12/25 06:19:02;;;;;;;8.40;4.42;;;;;;;0.62;100.00;98481.14;1730670;82;21403;-79
2021/12/25 06:21:31;;;;;;;8.80;4.92;;;;;;;0.62;100.00;98487.61;1727025;82;21539;-79
2021/12/25 06:24:17;;;;;;;8.23;5.25;;;;;;;0.62;100.00;98500.56;1703466;82;21186;-78
2021/12/25 06:26:48;;;;;;;9.63;5.35;;;;;;;0.59;100.00;98501.91;1725585;82;21104;-79
2021/12/25 06:29:19;;;;;;;9.50;5.60;;;;;;;0.61;100.00;98507.91;1711276;82;21049;-78
2021/12/25 06:31:50;;;;;;;8.65;5.42;;;;;;;0.60;100.00;98528.24;1708613;82;21053;-77
2021/12/25 06:34:33;;;;;;;11.80;5.10;;;;;;;0.59;100.00;98521.79;1706945;83;21208;-76
2021/12/25 06:37:14;;;;;;;8.10;5.50;;;;;;;0.61;100.00;98544.18;1721543;82;21150;-76
2021/12/25 06:44:20;;;;;;;10.33;6.17;;;;;;;0.59;100.00;98567.97;1796264;79;22683;-74
2021/12/25 06:46:50;;;;;;;10.25;5.60;;;;;;;0.55;100.00;98556.00;1781410;80;21078;-73
2021/12/25 06:49:18;;;;;;;11.03;5.90;;;;;;;0.56;100.00;98562.87;1768926;80;21509;-75
2021/12/25 06:52:05;;;;;;;12.47;6.00;;;;;;;0.55;100.00;98568.95;1663375;85;21093;-75
2021/12/25 06:54:35;;;;;;;11.95;6.35;;;;;;;0.52;100.00;98572.88;1627318;86;21111;-75
2021/12/25 06:57:21;;;;;;;13.70;6.70;;;;;;;0.49;100.00;98570.36;1710882;83;21048;-76
2021/12/25 06:59:48;;;;;;;13.53;6.15;;;;;;;0.47;100.00;98577.77;1689746;84;21112;-75
2021/12/25 07:02:15;;;;;;;12.55;6.08;;;;;;;0.42;100.00;98583.04;1693334;83;21124;-74
2021/12/25 07:05:00;;;;;;;13.38;5.83;;;;;;;0.41;100.00;98591.67;1704145;83;21105;-76
2021/12/25 07:07:46;;;;;;;10.30;5.95;;;;;;;0.37;100.00;98591.35;1683849;83;21128;-76
2021/12/25 07:10:23;;;;;;;13.95;6.55;;;;;;;0.35;100.00;98593.95;1720519;83;21120;-75
2021/12/25 07:12:54;;;;;;;12.63;6.58;;;;;;;0.42;100.00;98590.80;1703060;83;21106;-74
2021/12/25 07:15:41;;;;;;;12.28;6.60;;;;;;;0.77;100.00;98607.34;1713704;83;21157;-75
2021/12/25 07:18:12;;;;;;;15.38;7.37;;;;;;;0.96;100.00;98609.92;1697816;84;21080;-74
2021/12/25 07:20:56;;;;;;;11.15;6.15;;;;;;;1.37;100.00;98614.59;1695888;84;21143;-74
2021/12/25 07:23:25;;;;;;;11.10;6.40;;;;;;;1.79;100.00;98622.19;1695921;84;21124;-74
2021/12/25 07:25:56;;;;;;;11.45;6.20;;;;;;;1.92;96.26;98629.69;1696943;84;21120;-76
2021/12/25 07:28:46;;;;;;;11.12;6.22;;;;;;;2.52;95.36;98658.80;1707866;83;21048;-75
2021/12/25 07:31:12;;;;;;;11.33;6.03;;;;;;;2.76;91.74;98662.88;1698815;84;21034;-78
2021/12/25 07:33:42;;;;;;;11.18;6.30;;;;;;;2.76;91.74;98662.88;1714781;83;21044;-77
2021/12/25 07:36:09;;;;;;;10.45;6.08;;;;;;;2.88;91.44;98678.16;1674747;84;21078;-78
2021/12/25 07:38:36;;;;;;;14.23;6.80;;;;;;;2.95;88.81;98677.07;1714794;83;21065;-77
2021/12/25 07:41:03;;;;;;;11.60;7.08;;;;;;;3.05;91.68;98684.99;1683915;83;21145;-77
2021/12/25 07:43:30;;;;;;;13.75;6.90;;;;;;;3.19;87.66;98700.19;1679335;85;21125;-77
2021/12/25 07:46:01;;;;;;;11.37;6.93;;;;;;;3.41;88.15;98713.41;1682251;85;21421;-76
2021/12/25 07:48:28;;;;;;;13.65;7.55;;;;;;;3.68;86.04;98704.33;1680800;85;21058;-77
2021/12/25 07:50:55;;;;;;;13.90;7.72;;;;;;;4.15;87.06;98717.56;1680771;83;21117;-77
2021/12/25 07:53:21;;;;;;;12.30;7.35;;;;;;;4.37;83.42;98727.67;1675020;84;21266;-78
2021/12/25 07:55:48;;;;;;;12.58;7.35;;;;;;;4.74;80.73;98726.81;1653664;85;21086;-78
2021/12/25 07:58:17;;;;;;;13.35;8.03;;;;;;;5.18;80.92;98727.81;1680732;83;21120;-78
2021/12/25 08:00:44;;;;;;;14.00;7.47;;;;;;;5.28;78.94;98735.30;1680523;83;21082;-77
2021/12/25 08:03:12;;;;;;;14.23;7.85;;;;;;;5.01;76.75;98732.80;1680502;83;21101;-78
2021/12/25 08:05:40;;;;;;;11.95;6.90;;;;;;;4.50;77.41;98750.70;1680279;85;21683;-78
2021/12/25 08:08:10;;;;;;;11.68;7.33;;;;;;;4.19;80.76;98755.66;1685643;85;21089;-78
2021/12/25 08:10:39;;;;;;;13.75;7.47;;;;;;;3.97;83.07;98760.70;1670937;85;21673;-78
2021/12/25 08:13:06;;;;;;;13.98;8.00;;;;;;;3.64;80.33;98767.83;1686357;85;21089;-78
2021/12/25 08:15:32;;;;;;;13.08;7.53;;;;;;;3.41;81.70;98772.42;1683389;85;21089;-77
2021/12/25 08:18:03;;;;;;;14.33;8.78;;;;;;;3.51;81.30;98766.87;1683398;85;21142;-77
2021/12/25 08:20:30;;;;;;;12.37;7.47;;;;;;;3.78;83.00;98772.16;1683823;83;21034;-77
2021/12/25 08:23:16;;;;;;;13.88;7.28;;;;;;;4.10;80.51;98779.41;1682411;83;21078;-78
2021/12/25 08:25:45;;;;;;;15.45;8.15;;;;;;;4.09;76.12;98788.11;1668014;83;21050;-77
2021/12/25 08:28:28;;;;;;;14.07;7.08;;;;;;;3.92;77.64;98773.02;1603184;88;21121;-77
2021/12/25 08:31:14;;;;;;;13.65;8.08;;;;;;;3.67;77.97;98783.34;1636162;87;22049;-76
2021/12/25 08:33:48;;;;;;;13.35;7.28;;;;;;;3.30;79.82;98789.64;1688612;83;21113;-77
2021/12/25 08:36:29;;;;;;;15.88;7.75;;;;;;;3.02;82.00;98816.44;1662106;83;21105;-77
2021/12/25 08:38:56;;;;;;;14.55;7.97;;;;;;;2.70;85.21;98828.55;1709735;83;21081;-78
2021/12/25 08:41:26;;;;;;;13.38;7.53;;;;;;;2.39;87.69;98822.41;1712876;82;21069;-77
2021/12/25 08:43:57;;;;;;;14.98;6.67;;;;;;;2.09;88.65;98835.23;1709666;82;21570;-78
2021/12/25 08:46:35;;;;;;;13.80;5.97;;;;;;;1.79;90.15;98836.79;1713248;82;21057;-78
2021/12/25 08:48:48;;;;;;;11.08;5.60;;;;;;;1.55;90.82;98830.41;1708684;83;21501;-77
2021/12/25 08:51:15;;;;;;;10.28;5.72;;;;;;;1.34;91.73;98833.86;1718203;82;21041;-77
2021/12/25 08:53:41;;;;;;;9.38;4.97;;;;;;;1.18;92.06;98829.86;1710548;83;21089;-77
2021/12/25 08:56:08;;;;;;;11.65;5.40;;;;;;;1.09;94.52;98844.30;1709394;83;21525;-77
2021/12/25 08:58:34;;;;;;;9.85;5.50;;;;;;;0.99;94.62;98838.00;1709411;83;22163;-77
2021/12/25 09:01:04;;;;;;;12.00;6.10;;;;;;;0.96;95.60;98851.00;1707374;81;21093;-77
2021/12/25 09:03:30;;;;;;;11.12;6.05;;;;;;;0.91;95.46;98847.64;1709570;83;21089;-78
2021/12/25 09:05:59;;;;;;;12.13;6.30;;;;;;;0.85;94.75;98845.16;1709437;83;21133;-79
2021/12/25 09:08:25;;;;;;;10.75;5.90;;;;;;;0.78;94.61;98844.85;1709742;83;21398;-77
2021/12/25 09:10:52;;;;;;;11.90;6.60;;;;;;;0.74;95.32;98850.55;1709426;83;21046;-76
2021/12/25 09:13:19;;;;;;;8.33;5.17;;;;;;;0.73;95.48;98858.34;1701782;83;21062;-77
2021/12/25 09:15:46;;;;;;;12.10;6.45;;;;;;;0.71;95.63;98860.95;1709017;83;21050;-77
2021/12/25 09:18:12;;;;;;;12.63;6.75;;;;;;;0.67;93.67;98863.20;1709269;83;21085;-78
2021/12/25 09:20:40;;;;;;;15.25;6.30;;;;;;;0.66;92.90;98868.41;1709230;83;21026;-77
2021/12/25 09:23:07;;;;;;;14.60;6.87;;;;;;;0.57;93.10;98868.95;1709069;82;21050;-77
2021/12/25 09:25:33;;;;;;;11.45;5.70;;;;;;;0.59;93.88;98870.23;1709709;83;21058;-77
2021/12/25 09:28:00;;;;;;;13.20;6.33;;;;;;;0.57;94.00;98865.07;1709559;82;21073;-76
2021/12/25 09:30:27;;;;;;;12.00;5.33;;;;;;;0.62;93.49;98872.35;1710511;83;21097;-77
2021/12/25 09:32:54;;;;;;;10.60;5.72;;;;;;;0.66;93.84;98876.17;1709463;83;21127;-76
2021/12/25 09:35:20;;;;;;;11.88;6.37;;;;;;;0.67;90.30;98883.05;1709403;83;21446;-77
2021/12/25 09:37:47;;;;;;;9.98;5.78;;;;;;;0.66;89.21;98881.36;1709247;83;21029;-75
2021/12/25 09:40:14;;;;;;;12.50;5.87;;;;;;;0.68;90.09;98889.96;1709082;83;21027;-76
2021/12/25 09:42:43;;;;;;;13.38;6.08;;;;;;;0.70;88.80;98894.69;1709166;83;21551;-76
2021/12/25 09:45:10;;;;;;;16.20;6.60;;;;;;;0.74;88.35;98896.34;1709257;83;21112;-76
2021/12/25 09:47:38;;;;;;;10.82;5.45;;;;;;;0.88;87.09;98903.44;1709331;83;21018;-76
2021/12/25 09:50:06;;;;;;;10.88;5.53;;;;;;;0.99;86.67;98906.70;1709412;83;21049;-76
2021/12/25 09:52:33;;;;;;;11.63;5.20;;;;;;;1.07;84.05;98908.30;1708807;83;21085;-75
2021/12/25 09:55:00;;;;;;;11.00;5.72;;;;;;;1.08;84.01;98915.17;1709251;83;21137;-75
2021/12/25 09:57:26;;;;;;;10.30;5.45;;;;;;;1.14;83.49;98907.30;1712084;83;21062;-75
2021/12/25 09:59:53;;;;;;;10.72;4.83;;;;;;;1.26;83.97;98922.62;1709195;83;21611;-75
2021/12/25 10:02:19;;;;;;;12.25;5.87;;;;;;;1.41;82.66;98924.09;1709016;83;21606;-76
2021/12/25 10:04:52;;;;;;;10.88;5.50;;;;;;;1.55;82.63;98926.41;1709373;83;21073;-75
2021/12/25 10:07:23;;;;;;;10.68;5.55;;;;;;;1.64;81.30;98916.70;1709380;83;21057;-75
2021/12/25 10:10:16;;;;;;;12.93;6.53;;;;;;;1.89;81.12;98914.45;1709327;83;21499;-75
2021/12/25 10:12:47;;;;;;;14.43;6.95;;;;;;;2.45;76.60;98905.41;1709132;83;21046;-76
2021/12/25 10:15:22;;;;;;;15.63;7.22;;;;;;;2.45;76.60;98905.41;1709262;83;21081;-75
2021/12/25 10:17:54;;;;;;;10.40;5.60;;;;;;;3.01;75.53;98910.95;1709319;83;21174;-75
2021/12/25 10:20:24;;;;;;;16.45;6.50;;;;;;;3.90;72.04;98916.31;1707678;83;21011;-76
2021/12/25 10:23:15;;;;;;;13.13;5.85;;;;;;;4.84;72.23;98914.25;1708770;82;21082;-77
2021/12/25 10:25:55;;;;;;;12.20;5.87;;;;;;;5.77;66.38;98924.94;1709445;83;21046;-79
2021/12/25 10:28:30;;;;;;;9.75;5.53;;;;;;;6.64;62.34;98917.30;1712178;82;21044;-79
2021/12/25 10:31:08;;;;;;;8.23;5.55;;;;;;;7.29;57.14;98913.73;1714230;82;21467;-78
2021/12/25 10:33:44;;;;;;;10.38;6.22;;;;;;;7.77;52.17;98921.63;1714780;82;21638;-79
2021/12/25 10:36:31;;;;;;;9.63;5.47;;;;;;;8.18;52.15;98924.14;1710196;83;21098;-79
2021/12/25 10:39:10;;;;;;;11.05;5.90;;;;;;;8.74;49.61;98916.30;1715230;82;21061;-79
2021/12/25 10:41:53;;;;;;;7.95;5.00;;;;;;;9.51;47.60;98928.22;1715530;83;21572;-77
2021/12/25 10:44:23;;;;;;;10.25;6.10;;;;;;;10.18;46.43;98919.36;1714615;83;21073;-79
2021/12/25 10:47:03;;;;;;;9.70;4.90;;;;;;;10.65;45.22;98918.55;1715305;83;21531;-79
2021/12/25 10:49:33;;;;;;;10.43;5.40;;;;;;;10.67;40.19;98927.21;1715035;82;21185;-79
2021/12/25 10:52:19;;;;;;;7.90;5.05;;;;;;;10.29;40.43;98935.91;1693339;82;21097;-78
2021/12/25 10:54:56;;;;;;;7.95;4.78;;;;;;;10.31;40.75;98935.81;1692104;83;21598;-80
2021/12/25 10:57:44;;;;;;;7.95;4.80;;;;;;;10.57;39.96;98940.49;1715415;82;21114;-78
2021/12/25 11:00:28;;;;;;;8.38;4.85;;;;;;;10.64;38.49;98939.20;1715505;82;21093;-79
2021/12/25 11:03:03;;;;;;;8.38;4.85;;;;;;;10.88;39.30;98945.33;1716181;83;21543;-79
2021/12/25 11:05:46;;;;;;;11.03;5.58;;;;;;;11.32;38.62;98935.34;1719852;82;21246;-79
2021/12/25 11:08:19;;;;;;;7.37;4.78;;;;;;;11.61;39.10;98947.23;1723269;82;21022;-79
2021/12/25 11:10:55;;;;;;;7.33;4.72;;;;;;;11.51;36.05;98943.84;1716541;83;21050;-80
2021/12/25 11:13:29;;;;;;;6.50;4.05;;;;;;;11.45;35.67;98944.19;1715805;82;21039;-79
2021/12/25 11:16:05;;;;;;;6.90;4.45;;;;;;;11.31;36.81;98951.59;1715407;82;21548;-79
2021/12/25 11:19:05;;;;;;;9.18;4.58;;;;;;;11.35;35.47;98945.69;1718368;82;21136;-79
2021/12/25 11:21:44;;;;;;;6.50;4.03;;;;;;;10.86;34.76;98956.45;1719706;82;21050;-77
2021/12/25 11:24:31;;;;;;;6.62;4.05;;;;;;;9.92;36.98;98963.33;1719380;82;20943;-77
2021/12/25 11:27:06;;;;;;;6.78;4.05;;;;;;;9.24;35.76;98981.23;1717183;82;21096;-79
2021/12/25 11:29:37;;;;;;;7.15;4.10;;;;;;;8.53;37.90;98979.85;1711114;82;21053;-79
2021/12/25 11:32:05;;;;;;;7.30;4.42;;;;;;;8.02;37.53;98994.41;1710483;82;21050;-79
2021/12/25 11:34:33;;;;;;;7.77;4.90;;;;;;;7.72;36.98;98998.30;1710446;83;21042;-79
2021/12/25 11:37:01;;;;;;;12.05;4.90;;;;;;;7.21;37.06;99004.84;1707971;82;21121;-79
2021/12/25 11:39:30;;;;;;;8.83;3.77;;;;;;;6.85;37.85;99010.63;1708848;83;21697;-76
2021/12/25 11:42:10;;;;;;;6.03;3.58;;;;;;;6.42;37.95;99014.94;1709341;82;21141;-78
2021/12/25 11:44:49;;;;;;;5.85;3.50;;;;;;;6.16;38.74;99012.42;1709941;82;21253;-78
2021/12/25 11:47:37;;;;;;;6.58;3.55;;;;;;;6.46;37.83;99016.50;1704352;83;21097;-77
2021/12/25 11:50:16;;;;;;;6.55;3.72;;;;;;;6.65;38.21;99020.59;1709794;82;21089;-78
2021/12/25 11:52:51;;;;;;;5.10;3.30;;;;;;;6.92;40.12;99029.13;1710314;83;21061;-77
2021/12/25 11:56:01;;;;;;;4.78;3.15;;;;;;;6.85;37.43;99035.50;1710673;83;21116;-80
2021/12/25 12:00:42;;;;;;;5.17;3.40;;;;;;;6.82;37.00;99035.63;1709747;83;21081;-80
2021/12/25 12:03:39;;;;;;;6.08;3.62;;;;;;;6.84;36.22;99035.11;1708814;82;21069;-80
2021/12/25 12:06:06;;;;;;;7.72;3.50;;;;;;;6.82;35.98;99039.55;1654137;85;21081;-79
2021/12/25 12:08:58;;;;;;;6.92;3.50;;;;;;;7.08;37.77;99048.13;1673526;85;21620;-79
2021/12/25 12:11:32;;;;;;;6.92;3.83;;;;;;;7.47;36.93;99044.81;1669756;85;21571;-79
2021/12/25 12:14:25;;;;;;;6.30;3.52;;;;;;;8.01;36.00;99048.63;1673558;85;21659;-80
2021/12/25 12:17:24;;;;;;;7.08;4.10;;;;;;;8.11;33.91;99053.00;1669019;85;21056;-80
2021/12/25 12:19:54;;;;;;;7.83;4.15;;;;;;;8.09;34.42;99058.77;1673460;85;21528;-80
2021/12/25 12:25:41;;;;;;;11.10;5.90;;;;;;;8.22;34.76;99066.95;1626855;85;21639;-80
2021/12/25 12:27:58;;;;;;;8.93;4.72;;;;;;;7.70;39.70;99085.30;1696231;83;21093;-78
2021/12/25 12:30:50;;;;;;;10.03;5.10;;;;;;;7.44;35.45;99090.33;1708387;82;21281;-79
2021/12/25 12:33:23;;;;;;;12.05;6.28;;;;;;;7.23;36.47;99091.20;1708781;83;21073;-80
2021/12/25 12:35:52;;;;;;;9.93;5.62;;;;;;;7.06;37.10;99082.69;1706050;83;21168;-79
2021/12/25 12:38:41;;;;;;;11.20;5.83;;;;;;;6.93;36.60;99085.79;1709643;83;21046;-80
2021/12/25 12:41:34;;;;;;;11.55;4.75;;;;;;;6.33;36.31;99093.73;1710285;82;21109;-80
2021/12/25 12:44:15;;;;;;;10.18;5.53;;;;;;;5.60;39.50;99103.17;1710917;83;21052;-79
2021/12/25 12:46:58;;;;;;;10.65;5.45;;;;;;;4.99;39.30;99106.42;1698632;82;21013;-79
2021/12/25 12:49:32;;;;;;;12.78;6.62;;;;;;;4.43;40.52;99119.38;1711397;82;21391;-79
2021/12/25 12:52:25;;;;;;;11.73;6.60;;;;;;;4.22;42.46;99128.66;1712766;83;21042;-79
2021/12/25 12:55:05;;;;;;;8.63;4.90;;;;;;;4.03;41.84;99128.30;1710511;83;21033;-80
2021/12/25 12:57:37;;;;;;;10.00;4.22;;;;;;;3.55;41.90;99128.20;1712017;83;21592;-79
2021/12/25 13:00:22;;;;;;;6.05;3.35;;;;;;;2.81;44.26;99150.69;1711919;83;21032;-80
2021/12/25 13:02:52;;;;;;;11.57;4.17;;;;;;;2.24;45.42;99156.16;1710503;83;21231;-79
2021/12/25 13:05:29;;;;;;;8.03;4.00;;;;;;;1.79;47.31;99165.17;1705922;82;21094;-80
2021/12/25 13:07:57;;;;;;;6.40;3.75;;;;;;;1.41;46.33;99164.91;1708236;83;21120;-80